createdAt,value
2018-07-09T00:02:06.811Z,5.37
2018-07-09T00:04:34.644Z,6.07
2018-07-09T00:07:02.581Z,5.90
2018-07-09T00:09:30.518Z,6.23
2018-07-09T00:11:59.160Z,6.20
2018-07-09T00:14:27.237Z,6.60
2018-07-09T00:16:55.164Z,6.07
2018-07-09T00:19:23.107Z,5.83
2018-07-09T00:21:50.999Z,5.97
2018-07-09T00:24:18.779Z,5.60
2018-07-09T00:26:46.735Z,5.97
2018-07-09T00:29:14.981Z,6.37
2018-07-09T00:31:42.847Z,5.90
2018-07-09T00:34:10.713Z,5.63
2018-07-09T00:36:38.609Z,5.77
2018-07-09T00:39:06.690Z,6.07
2018-07-09T00:41:35.757Z,6.63
2018-07-09T00:44:03.940Z,6.13
2018-07-09T00:46:31.785Z,6.47
2018-07-09T00:49:00.091Z,5.77
2018-07-09T00:51:27.906Z,5.77
2018-07-09T00:53:55.846Z,6.47
2018-07-09T00:56:23.599Z,6.13
2018-07-09T00:58:51.493Z,6.47
2018-07-09T01:01:19.638Z,6.10
2018-07-09T01:03:47.417Z,5.60
2018-07-09T01:06:15.176Z,6.97
2018-07-09T01:08:43.434Z,6.40
2018-07-09T01:11:16.871Z,7.40
2018-07-09T01:13:45.946Z,6.70
2018-07-09T01:16:13.886Z,5.70
2018-07-09T01:18:42.312Z,6.10
2018-07-09T01:21:12.401Z,6.73
2018-07-09T01:23:40.231Z,6.87
2018-07-09T01:26:08.671Z,6.33
2018-07-09T01:28:38.259Z,6.40
2018-07-09T01:31:06.256Z,5.50
2018-07-09T01:33:34.176Z,6.63
2018-07-09T01:36:02.141Z,5.90
2018-07-09T01:38:30.049Z,5.80
2018-07-09T01:40:57.812Z,6.17
2018-07-09T01:43:25.728Z,6.40
2018-07-09T01:45:53.813Z,5.90
2018-07-09T01:48:21.685Z,6.93
2018-07-09T01:50:49.454Z,7.77
2018-07-09T01:53:17.355Z,7.30
2018-07-09T01:55:45.244Z,6.40
2018-07-09T01:58:13.120Z,8.00
2018-07-09T02:00:40.986Z,6.77
2018-07-09T02:03:09.315Z,6.70
2018-07-09T02:05:37.213Z,7.50
2018-07-09T02:08:05.755Z,6.70
2018-07-09T02:10:33.533Z,6.93
2018-07-09T02:13:01.540Z,7.43
2018-07-09T02:15:29.462Z,7.00
2018-07-09T02:17:57.217Z,7.40
2018-07-09T02:20:25.043Z,6.00
2018-07-09T02:22:53.097Z,6.03
2018-07-09T02:25:21.780Z,7.43
2018-07-09T02:27:49.698Z,6.90
2018-07-09T02:30:17.590Z,6.53
2018-07-09T02:32:45.485Z,7.40
2018-07-09T02:35:13.401Z,6.27
2018-07-09T02:37:41.221Z,6.30
2018-07-09T02:40:09.313Z,6.60
2018-07-09T02:42:37.144Z,5.70
2018-07-09T02:45:05.184Z,6.47
2018-07-09T02:47:33.089Z,6.70
2018-07-09T02:50:00.977Z,7.10
2018-07-09T02:52:28.890Z,6.20
2018-07-09T02:54:57.183Z,7.60
2018-07-09T02:57:25.117Z,7.73
2018-07-09T02:59:53.038Z,6.17
2018-07-09T03:02:20.947Z,6.60
2018-07-09T03:04:48.918Z,8.00
2018-07-09T03:07:16.804Z,5.77
2018-07-09T03:09:44.576Z,7.70
2018-07-09T03:12:12.476Z,6.07
2018-07-09T03:14:40.366Z,7.90
2018-07-09T03:17:08.496Z,7.83
2018-07-09T03:19:36.569Z,7.00
2018-07-09T03:22:04.436Z,7.57
2018-07-09T03:24:32.343Z,9.13
2018-07-09T03:27:00.747Z,10.13
2018-07-09T03:29:28.564Z,8.60
2018-07-09T03:31:56.439Z,8.23
2018-07-09T03:34:24.686Z,7.50
2018-07-09T03:36:52.578Z,8.33
2018-07-09T03:39:20.512Z,8.00
2018-07-09T03:41:48.418Z,8.53
2018-07-09T03:44:16.364Z,9.43
2018-07-09T03:46:44.402Z,9.00
2018-07-09T03:49:12.485Z,8.57
2018-07-09T03:51:40.844Z,9.30
2018-07-09T03:54:08.723Z,9.00
2018-07-09T03:56:36.666Z,8.80
2018-07-09T03:59:04.975Z,8.20
2018-07-09T04:01:32.917Z,8.10
2018-07-09T04:04:00.822Z,9.47
2018-07-09T04:06:28.575Z,9.70
2018-07-09T04:08:56.465Z,8.27
2018-07-09T04:11:24.246Z,8.47
2018-07-09T04:13:53.019Z,8.50
2018-07-09T04:16:20.772Z,8.63
2018-07-09T04:18:49.969Z,9.27
2018-07-09T04:21:17.924Z,8.27
2018-07-09T04:23:45.762Z,7.83
2018-07-09T04:26:13.706Z,8.17
2018-07-09T04:28:41.596Z,9.20
2018-07-09T04:31:09.494Z,8.80
2018-07-09T04:33:37.394Z,9.20
2018-07-09T04:36:05.658Z,9.07
2018-07-09T04:38:33.408Z,9.43
2018-07-09T04:41:01.178Z,8.93
2018-07-09T04:43:29.133Z,8.80
2018-07-09T04:45:56.901Z,9.03
2018-07-09T04:48:25.004Z,8.70
2018-07-09T04:50:52.953Z,9.37
2018-07-09T04:53:21.172Z,8.83
2018-07-09T04:55:49.971Z,8.37
2018-07-09T04:58:18.921Z,8.60
2018-07-09T05:00:46.868Z,8.07
2018-07-09T05:03:15.419Z,8.87
2018-07-09T05:05:43.619Z,8.10
2018-07-09T05:08:11.514Z,8.47
2018-07-09T05:10:40.018Z,7.80
2018-07-09T05:13:09.205Z,7.60
2018-07-09T05:15:37.115Z,7.30
2018-07-09T05:18:05.901Z,8.37
2018-07-09T05:20:33.849Z,7.80
2018-07-09T05:23:02.970Z,8.20
2018-07-09T05:25:31.106Z,7.77
2018-07-09T05:27:59.571Z,8.37
2018-07-09T05:30:29.299Z,8.40
2018-07-09T05:32:57.099Z,8.37
2018-07-09T05:35:25.407Z,7.27
2018-07-09T05:37:53.473Z,8.40
2018-07-09T05:40:21.273Z,8.00
2018-07-09T05:42:49.431Z,8.17
2018-07-09T05:45:17.273Z,8.17
2018-07-09T05:47:45.584Z,7.40
2018-07-09T05:50:13.664Z,7.57
2018-07-09T05:52:42.444Z,7.00
2018-07-09T05:55:10.451Z,7.37
2018-07-09T05:57:38.779Z,7.90
2018-07-09T06:00:06.554Z,7.90
2018-07-09T06:02:34.620Z,6.43
2018-07-09T06:05:02.681Z,8.23
2018-07-09T06:07:30.692Z,6.60
2018-07-09T06:09:59.238Z,7.20
2018-07-09T06:12:27.018Z,7.13
2018-07-09T06:14:54.933Z,6.43
2018-07-09T06:17:23.259Z,6.70
2018-07-09T06:19:51.167Z,6.63
2018-07-09T06:22:19.105Z,5.50
2018-07-09T06:24:47.107Z,6.77
2018-07-09T06:27:15.088Z,6.17
2018-07-09T06:29:42.988Z,6.60
2018-07-09T06:32:10.932Z,6.47
2018-07-09T06:34:38.721Z,7.17
2018-07-09T06:37:06.541Z,6.07
2018-07-09T06:39:34.459Z,6.73
2018-07-09T06:42:02.925Z,6.40
2018-07-09T06:44:31.417Z,6.23
2018-07-09T06:46:59.406Z,7.13
2018-07-09T06:49:27.393Z,7.27
2018-07-09T06:51:55.415Z,5.90
2018-07-09T06:54:23.713Z,7.30
2018-07-09T06:56:51.694Z,6.70
2018-07-09T06:59:19.750Z,7.00
2018-07-09T07:01:47.691Z,6.90
2018-07-09T07:04:15.599Z,7.07
2018-07-09T07:06:44.113Z,7.50
2018-07-09T07:09:12.169Z,7.10
2018-07-09T07:11:40.840Z,7.83
2018-07-09T07:14:09.478Z,7.80
2018-07-09T07:16:37.275Z,7.13
2018-07-09T07:19:06.234Z,8.30
2018-07-09T07:21:34.359Z,7.10
2018-07-09T07:24:02.294Z,8.43
2018-07-09T07:26:30.602Z,7.23
2018-07-09T07:28:58.589Z,6.90
2018-07-09T07:31:26.800Z,7.27
2018-07-09T07:33:54.934Z,5.80
2018-07-09T07:36:23.505Z,6.57
2018-07-09T07:38:51.567Z,7.97
2018-07-09T07:41:19.482Z,7.27
2018-07-09T07:43:47.618Z,7.60
2018-07-09T07:46:15.876Z,6.97
2018-07-09T07:48:43.631Z,7.60
2018-07-09T07:51:11.727Z,9.00
2018-07-09T07:53:39.638Z,8.20
2018-07-09T07:56:09.019Z,7.60
2018-07-09T07:58:38.386Z,7.40
2018-07-09T08:01:08.529Z,7.47
2018-07-09T08:03:36.884Z,7.10
2018-07-09T08:06:07.040Z,7.70
2018-07-09T08:08:35.130Z,7.23
2018-07-09T08:11:10.912Z,6.77
2018-07-09T08:13:31.424Z,7.20
2018-07-09T08:15:59.238Z,7.50
2018-07-09T08:18:27.212Z,5.57
2018-07-09T08:20:55.695Z,6.10
2018-07-09T08:23:23.688Z,5.97
2018-07-09T08:25:51.673Z,6.50
2018-07-09T08:28:19.616Z,6.80
2018-07-09T08:30:47.508Z,6.60
2018-07-09T08:33:15.325Z,6.30
2018-07-09T08:35:43.275Z,7.10
2018-07-09T08:38:11.176Z,7.60
2018-07-09T08:40:39.173Z,6.80
2018-07-09T08:43:07.363Z,6.80
2018-07-09T08:45:35.145Z,6.80
2018-07-09T08:48:02.955Z,5.80
2018-07-09T08:50:30.835Z,6.10
2018-07-09T08:52:59.450Z,6.43
2018-07-09T08:55:27.248Z,6.20
2018-07-09T08:57:55.221Z,6.63
2018-07-09T09:00:23.161Z,5.80
2018-07-09T09:02:51.623Z,7.53
2018-07-09T09:05:19.580Z,4.97
2018-07-09T09:07:47.677Z,6.53
2018-07-09T09:10:15.874Z,5.17
2018-07-09T09:12:44.020Z,6.07
2018-07-09T09:15:12.029Z,6.43
2018-07-09T09:17:39.998Z,6.20
2018-07-09T09:20:08.347Z,6.40
2018-07-09T09:22:36.143Z,6.30
2018-07-09T09:25:04.139Z,6.67
2018-07-09T09:27:32.072Z,6.53
2018-07-09T09:30:00.844Z,6.17
2018-07-09T09:32:28.874Z,6.27
2018-07-09T09:34:56.797Z,7.70
2018-07-09T09:37:25.444Z,6.13
2018-07-09T09:39:53.529Z,6.30
2018-07-09T09:42:21.313Z,6.80
2018-07-09T09:44:49.215Z,7.47
2018-07-09T09:47:17.022Z,6.03
2018-07-09T09:49:44.799Z,5.93
2018-07-09T09:52:12.560Z,6.30
2018-07-09T09:54:40.619Z,6.90
2018-07-09T09:57:08.551Z,6.57
2018-07-09T09:59:36.492Z,6.97
2018-07-09T10:02:04.398Z,6.50
2018-07-09T10:04:32.907Z,6.73
2018-07-09T10:07:01.211Z,6.80
2018-07-09T10:09:29.133Z,7.07
2018-07-09T10:11:57.056Z,6.50
2018-07-09T10:14:25.599Z,6.60
2018-07-09T10:16:53.593Z,6.23
2018-07-09T10:19:21.569Z,6.13
2018-07-09T10:21:49.524Z,6.63
2018-07-09T10:24:17.299Z,6.37
2018-07-09T10:26:45.242Z,6.10
2018-07-09T10:29:13.229Z,6.43
2018-07-09T10:31:41.774Z,6.37
2018-07-09T10:34:10.421Z,6.10
2018-07-09T10:36:38.925Z,6.90
2018-07-09T10:39:06.897Z,5.43
2018-07-09T10:41:34.797Z,6.47
2018-07-09T10:44:02.651Z,5.80
2018-07-09T10:46:30.555Z,6.10
2018-07-09T10:48:58.333Z,5.47
2018-07-09T10:51:26.367Z,5.47
2018-07-09T10:53:55.123Z,5.80
2018-07-09T10:56:23.076Z,6.87
2018-07-09T10:58:52.138Z,7.30
2018-07-09T11:01:19.931Z,9.50
2018-07-09T11:03:48.534Z,8.90
2018-07-09T11:06:16.570Z,9.57
2018-07-09T11:08:44.457Z,7.40
2018-07-09T11:11:12.475Z,9.27
2018-07-09T11:13:40.437Z,8.60
2018-07-09T11:16:08.592Z,9.77
2018-07-09T11:18:36.461Z,9.47
2018-07-09T11:21:05.339Z,9.50
2018-07-09T11:23:33.984Z,9.47
2018-07-09T11:26:01.965Z,9.53
2018-07-09T11:28:29.900Z,9.50
2018-07-09T11:30:57.868Z,9.00
2018-07-09T11:33:25.959Z,9.80
2018-07-09T11:35:53.903Z,10.00
2018-07-09T11:38:21.782Z,9.17
2018-07-09T11:40:50.211Z,10.20
2018-07-09T11:43:18.159Z,8.10
2018-07-09T11:45:46.438Z,8.20
2018-07-09T11:48:14.245Z,7.87
2018-07-09T11:50:42.687Z,10.43
2018-07-09T11:53:10.661Z,7.50
2018-07-09T11:55:39.546Z,6.60
2018-07-09T11:58:08.278Z,7.13
2018-07-09T12:00:37.171Z,7.40
2018-07-09T12:03:05.713Z,7.80
2018-07-09T12:05:33.893Z,7.00
2018-07-09T12:08:03.139Z,7.27
2018-07-09T12:10:32.174Z,7.60
2018-07-09T12:13:00.083Z,6.70
2018-07-09T12:15:28.044Z,6.17
2018-07-09T12:17:56.193Z,6.10
2018-07-09T12:20:25.165Z,5.93
2018-07-09T12:22:53.146Z,6.00
2018-07-09T12:25:21.215Z,5.73
2018-07-09T12:27:49.156Z,5.60
2018-07-09T12:30:17.193Z,5.47
2018-07-09T12:32:45.114Z,6.00
2018-07-09T12:35:12.942Z,5.30
2018-07-09T12:37:40.858Z,6.20
2018-07-09T12:40:08.603Z,5.60
2018-07-09T12:42:37.017Z,5.40
2018-07-09T12:45:05.224Z,6.70
2018-07-09T12:47:33.175Z,10.63
2018-07-09T12:50:02.113Z,9.83
2018-07-09T12:52:31.167Z,9.60
2018-07-09T12:54:59.319Z,10.13
2018-07-09T12:57:27.246Z,8.73
2018-07-09T12:59:55.132Z,11.00
2018-07-09T13:02:23.134Z,9.87
2018-07-09T13:04:51.712Z,11.80
2018-07-09T13:07:20.284Z,10.80
2018-07-09T13:09:48.733Z,10.80
2018-07-09T13:12:33.483Z,9.10
2018-07-09T13:15:02.183Z,9.83
2018-07-09T13:17:30.098Z,12.87
2018-07-09T13:19:59.611Z,11.37
2018-07-09T13:22:27.655Z,14.00
2018-07-09T13:24:55.549Z,13.70
2018-07-09T13:27:23.494Z,13.30
2018-07-09T13:29:51.571Z,12.40
2018-07-09T13:32:19.624Z,13.90
2018-07-09T13:34:47.475Z,14.77
2018-07-09T13:37:15.245Z,13.73
2018-07-09T13:39:43.145Z,13.63
2018-07-09T13:42:11.456Z,15.17
2018-07-09T13:44:39.611Z,14.63
2018-07-09T13:47:07.545Z,13.90
2018-07-09T13:49:35.850Z,10.60
2018-07-09T13:52:03.805Z,11.10
2018-07-09T13:54:31.852Z,9.73
2018-07-09T13:56:59.824Z,9.23
2018-07-09T13:59:27.666Z,9.37
2018-07-09T14:01:55.934Z,8.97
2018-07-09T14:04:23.836Z,8.77
2018-07-09T14:06:51.615Z,8.93
2018-07-09T14:09:19.530Z,8.23
2018-07-09T14:11:47.429Z,9.60
2018-07-09T14:14:15.363Z,8.60
2018-07-09T14:16:43.270Z,9.53
2018-07-09T14:19:16.622Z,9.40
2018-07-09T14:21:46.742Z,8.30
2018-07-09T14:24:15.309Z,7.93
2018-07-09T14:26:43.990Z,8.50
2018-07-09T14:29:12.668Z,7.70
2018-07-09T14:31:40.731Z,8.40
2018-07-09T14:34:09.297Z,6.87
2018-07-09T14:36:37.680Z,7.37
2018-07-09T14:39:06.562Z,6.90
2018-07-09T14:41:35.344Z,7.10
2018-07-09T14:44:03.482Z,7.20
2018-07-09T14:46:32.150Z,7.33
2018-07-09T14:49:00.940Z,7.10
2018-07-09T14:51:29.887Z,7.67
2018-07-09T14:53:58.078Z,7.00
2018-07-09T14:56:26.082Z,6.37
2018-07-09T14:58:54.736Z,6.23
2018-07-09T15:01:22.575Z,6.57
2018-07-09T15:03:50.593Z,5.27
2018-07-09T15:06:19.973Z,4.93
2018-07-09T15:08:48.004Z,5.50
2018-07-09T15:11:16.533Z,5.03
2018-07-09T15:13:44.601Z,5.40
2018-07-09T15:16:13.138Z,5.73
2018-07-09T15:18:41.835Z,5.87
2018-07-09T15:21:09.797Z,5.20
2018-07-09T15:23:38.232Z,4.90
2018-07-09T15:26:06.187Z,5.40
2018-07-09T15:28:34.304Z,4.60
2018-07-09T15:31:02.232Z,4.60
2018-07-09T15:33:29.997Z,4.93
2018-07-09T15:35:57.958Z,4.70
2018-07-09T15:38:26.477Z,4.73
2018-07-09T15:40:54.511Z,5.33
2018-07-09T15:43:27.960Z,4.47
2018-07-09T15:45:56.805Z,5.00
2018-07-09T15:48:24.868Z,5.27
2018-07-09T15:50:52.687Z,5.10
2018-07-09T15:53:20.621Z,5.43
2018-07-09T15:58:32.869Z,6.20
2018-07-09T16:01:00.897Z,4.93
2018-07-09T16:03:28.955Z,5.60
2018-07-09T16:05:56.986Z,4.60
2018-07-09T16:08:25.041Z,5.03
2018-07-09T16:10:52.979Z,4.57
2018-07-09T16:13:20.909Z,5.40
2018-07-09T16:15:48.802Z,5.00
2018-07-09T16:18:17.374Z,4.90
2018-07-09T16:20:45.289Z,5.20
2018-07-09T16:23:13.195Z,5.40
2018-07-09T16:25:41.840Z,5.10
2018-07-09T16:28:09.730Z,4.80
2018-07-09T16:30:37.766Z,4.40
2018-07-09T16:33:06.123Z,5.27
2018-07-09T16:35:34.592Z,4.90
2018-07-09T16:38:03.094Z,5.73
2018-07-09T16:40:31.039Z,5.50
2018-07-09T16:42:59.137Z,5.67
2018-07-09T16:45:30.058Z,5.00
2018-07-09T16:47:58.769Z,5.63
2018-07-09T16:50:31.167Z,5.43
2018-07-09T16:53:03.778Z,5.77
2018-07-09T16:55:39.739Z,5.37
2018-07-09T16:58:13.330Z,4.97
2018-07-09T17:00:41.511Z,6.40
2018-07-09T17:03:10.234Z,6.23
2018-07-09T17:05:38.610Z,4.87
2018-07-09T17:08:07.405Z,5.20
2018-07-09T17:10:36.100Z,5.80
2018-07-09T17:13:04.069Z,5.53
2018-07-09T17:15:32.031Z,6.03
2018-07-09T17:17:59.838Z,5.70
2018-07-09T17:20:27.786Z,5.40
2018-07-09T17:22:55.850Z,6.27
2018-07-09T17:25:23.768Z,6.03
2018-07-09T17:27:51.704Z,5.20
2018-07-09T17:30:19.851Z,6.00
2018-07-09T17:32:48.003Z,6.33
2018-07-09T17:35:15.882Z,6.30
2018-07-09T17:37:44.619Z,5.77
2018-07-09T17:40:12.351Z,5.87
2018-07-09T17:42:40.296Z,5.60
2018-07-09T17:45:08.906Z,6.87
2018-07-09T17:47:36.853Z,7.07
2018-07-09T17:50:05.198Z,6.87
2018-07-09T17:52:33.208Z,6.10
2018-07-09T17:55:01.129Z,6.40
2018-07-09T17:57:29.067Z,6.57
2018-07-09T17:59:56.974Z,6.70
2018-07-09T18:02:24.916Z,6.50
2018-07-09T18:04:53.055Z,6.43
2018-07-09T18:07:20.892Z,6.87
2018-07-09T18:09:48.876Z,6.17
2018-07-09T18:12:16.799Z,6.17
2018-07-09T18:14:44.898Z,6.23
2018-07-09T18:17:12.785Z,6.00
2018-07-09T18:19:40.640Z,6.00
2018-07-09T18:22:08.482Z,6.13
2018-07-09T18:24:36.656Z,6.37
2018-07-09T18:27:04.651Z,6.40
2018-07-09T18:29:32.876Z,5.90
2018-07-09T18:32:02.012Z,6.27
2018-07-09T18:34:29.923Z,6.40
2018-07-09T18:36:57.724Z,6.13
2018-07-09T18:39:25.711Z,6.50
2018-07-09T18:41:53.650Z,7.97
2018-07-09T18:44:23.359Z,7.30
2018-07-09T18:46:51.307Z,6.73
2018-07-09T18:49:19.249Z,7.00
2018-07-09T18:51:48.438Z,6.30
2018-07-09T18:54:16.649Z,7.20
2018-07-09T18:56:44.716Z,7.13
2018-07-09T18:59:12.685Z,7.50
2018-07-09T19:01:41.056Z,6.43
2018-07-09T19:04:09.737Z,6.87
2018-07-09T19:06:52.991Z,7.10
2018-07-09T19:09:22.891Z,7.37
2018-07-09T19:11:52.417Z,7.53
2018-07-09T19:14:23.357Z,7.87
2018-07-09T19:18:08.748Z,7.00
2018-07-09T19:21:18.979Z,7.80
2018-07-09T19:23:46.519Z,6.20
2018-07-09T19:26:13.698Z,8.07
2018-07-09T19:28:40.433Z,7.73
2018-07-09T19:31:07.231Z,6.80
2018-07-09T19:33:35.170Z,7.30
2018-07-09T19:36:02.925Z,7.47
2018-07-09T19:38:29.747Z,6.83
2018-07-09T19:40:56.990Z,6.93
2018-07-09T19:43:24.827Z,7.03
2018-07-09T19:45:51.739Z,7.80
2018-07-09T19:48:18.968Z,7.53
2018-07-09T19:50:46.212Z,6.90
2018-07-09T19:53:13.727Z,6.90
2018-07-09T19:55:42.292Z,7.60
2018-07-09T19:58:09.219Z,8.47
2018-07-09T20:00:36.662Z,7.77
2018-07-09T20:03:04.118Z,7.83
2018-07-09T20:05:31.064Z,7.60
2018-07-09T20:07:58.528Z,8.43
2018-07-09T20:10:31.046Z,7.80
2018-07-09T20:14:00.966Z,7.80
2018-07-09T20:16:33.362Z,7.93
2018-07-09T20:19:00.170Z,8.17
2018-07-09T20:21:27.383Z,8.17
2018-07-09T20:23:54.314Z,8.10
2018-07-09T20:26:21.713Z,8.50
2018-07-09T20:28:48.724Z,8.60
2018-07-09T20:31:16.489Z,9.87
2018-07-09T20:33:43.286Z,9.10
2018-07-09T20:36:10.894Z,9.67
2018-07-09T20:38:38.103Z,9.03
2018-07-09T20:41:05.055Z,8.57
2018-07-09T20:43:32.897Z,9.30
2018-07-09T20:45:59.657Z,10.13
2018-07-09T20:48:26.446Z,10.07
2018-07-09T20:50:53.758Z,10.37
2018-07-09T20:53:20.512Z,9.63
2018-07-09T20:55:47.801Z,10.30
2018-07-09T20:58:15.001Z,10.23
2018-07-09T21:00:43.057Z,8.23
2018-07-09T21:03:10.284Z,8.80
2018-07-09T21:05:37.042Z,8.70
2018-07-09T21:08:03.829Z,8.23
2018-07-09T21:10:30.596Z,8.40
2018-07-09T21:12:58.799Z,9.00
2018-07-09T21:15:27.518Z,8.33
2018-07-09T21:17:54.498Z,8.50
2018-07-09T21:20:21.485Z,9.00
2018-07-09T21:22:48.897Z,8.07
2018-07-09T21:25:16.968Z,7.40
2018-07-09T21:27:44.145Z,8.10
2018-07-09T21:30:11.186Z,8.07
2018-07-09T21:32:37.963Z,8.20
2018-07-09T21:35:05.061Z,8.83
2018-07-09T21:37:32.304Z,8.87
2018-07-09T21:39:59.030Z,9.13
2018-07-09T21:42:25.791Z,8.00
2018-07-09T21:44:52.970Z,8.47
2018-07-09T21:47:19.759Z,9.07
2018-07-09T21:49:46.530Z,8.70
2018-07-09T21:52:13.709Z,9.10
2018-07-09T21:54:40.477Z,8.20
2018-07-09T21:57:07.258Z,8.50
2018-07-09T21:59:33.999Z,9.70
2018-07-09T22:02:00.765Z,9.00
2018-07-09T22:04:27.506Z,9.23
2018-07-09T22:06:54.288Z,10.33
2018-07-09T22:09:21.124Z,9.53
2018-07-09T22:11:48.466Z,9.80
2018-07-09T22:14:15.583Z,9.67
2018-07-09T22:16:42.360Z,9.53
2018-07-09T22:19:09.132Z,8.87
2018-07-09T22:21:35.915Z,11.13
2018-07-09T22:24:02.687Z,11.33
2018-07-09T22:26:29.459Z,10.73
2018-07-09T22:28:56.649Z,10.40
2018-07-09T22:31:24.372Z,12.10
2018-07-09T22:33:52.359Z,11.30
2018-07-09T22:36:20.266Z,10.20
2018-07-09T22:38:48.192Z,10.90
2018-07-09T22:41:15.984Z,10.00
2018-07-09T22:43:55.224Z,10.20
2018-07-09T22:46:23.160Z,11.63
2018-07-09T22:48:50.924Z,12.60
2018-07-09T22:51:18.877Z,11.90
2018-07-09T22:53:46.837Z,11.40
2018-07-09T22:56:15.719Z,12.50
2018-07-09T22:58:43.659Z,13.13
2018-07-09T23:01:11.690Z,13.03
2018-07-09T23:03:39.476Z,11.17
2018-07-09T23:06:07.923Z,12.00
2018-07-09T23:08:35.850Z,11.70
2018-07-09T23:11:21.098Z,10.77
2018-07-09T23:14:56.733Z,10.40
2018-07-09T23:17:36.050Z,11.17
2018-07-09T23:20:42.274Z,12.30
2018-07-09T23:23:09.048Z,12.20
2018-07-09T23:25:35.808Z,11.77
2018-07-09T23:28:02.822Z,12.73
2018-07-09T23:30:29.546Z,12.13
2018-07-09T23:32:56.268Z,12.30
2018-07-09T23:35:22.986Z,11.00
2018-07-09T23:37:49.758Z,11.30
2018-07-09T23:40:16.503Z,11.90
2018-07-09T23:42:43.246Z,11.97
2018-07-09T23:45:10.012Z,10.80
2018-07-09T23:47:36.767Z,10.27
2018-07-09T23:50:03.528Z,11.13
2018-07-09T23:52:30.616Z,11.37
2018-07-09T23:54:57.342Z,10.90
2018-07-09T23:59:43.424Z,10.47
